»·PEaware :: N4131C KCRQ-KSBA

N4131C :: KCRQ-KSBA

FLIGHT INFORMATION

Flight Status: Arrived
Operator: Privately registered:
United States
More flights under this callsign
Pilot: Kyle A. (14988)
Aircraft: PIPER PA-28R-201 ARROW
(P28R)
More flights by this aircraft type
Origin: KCRQ McClellan-Palomar
United States
Destination: KSBA Santa Barbara Mun
United States
More flights between these airports :: More routes between these airports
Route: +OCN V23 LAX V299 VTU VTU282R KWANG
File this flight plan on PilotEdge
Remarks: SANN35
Altitude:
(Current/Filed)
6,000ft
Speed:
(Current/Filed)
140kts
Departed: 09-Jan-18 10:00 AM
Arrived: 09-Jan-18 11:25 AM
Distance/Time
Traveled:
149nm/1:25
Distance/Time
To Go:
Arrived

Flight Plot

Page will automatically refresh every two minutes.


Map Options




Map Legend


Flown Route
Filed Route
Departure Airport
Arrival Airport
Navaid (VOR, NDB)
Fix

Horizontal Profiles

Position Reports

Time Latitude Longitude Heading Altitude Ground
Speed
09-Jan-18 09:32 33.127242 -117.274465 251 297ft 0kts
09-Jan-18 09:33 33.127242 -117.274465 251 297ft 0kts
09-Jan-18 09:34 33.127242 -117.274465 251 297ft 0kts
09-Jan-18 09:35 33.127242 -117.274465 251 297ft 0kts
09-Jan-18 09:36 33.127242 -117.274465 251 297ft 0kts
09-Jan-18 09:37 33.127242 -117.274465 251 297ft 0kts
09-Jan-18 09:38 33.127242 -117.274465 251 297ft 0kts
09-Jan-18 09:39 33.127242 -117.274465 251 297ft 0kts
09-Jan-18 09:40 33.127242 -117.274465 251 297ft 0kts
09-Jan-18 09:41 33.127242 -117.274465 251 297ft 0kts
09-Jan-18 09:42 33.127242 -117.274465 251 297ft 0kts
09-Jan-18 09:43 33.127242 -117.274465 251 297ft 0kts
09-Jan-18 09:44 33.127242 -117.274465 251 297ft 0kts
09-Jan-18 09:45 33.127242 -117.274465 251 297ft 0kts
09-Jan-18 09:46 33.127242 -117.274465 251 297ft 0kts
09-Jan-18 09:47 33.127242 -117.274465 251 297ft 0kts
09-Jan-18 09:48 33.127242 -117.274465 251 297ft 0kts
09-Jan-18 09:49 33.127242 -117.274465 251 297ft 0kts
09-Jan-18 09:50 33.127242 -117.274465 251 297ft 0kts
09-Jan-18 09:51 33.127242 -117.274465 251 297ft 0kts
09-Jan-18 09:52 33.127242 -117.274465 251 297ft 0kts
09-Jan-18 09:53 33.127242 -117.274465 251 297ft 0kts
09-Jan-18 09:54 33.127242 -117.274465 251 297ft 0kts
09-Jan-18 09:55 33.127242 -117.274465 251 297ft 0kts
09-Jan-18 09:56 33.127242 -117.274465 251 297ft 0kts
09-Jan-18 09:57 33.127242 -117.274465 251 297ft 0kts
09-Jan-18 09:58 33.127242 -117.274465 251 297ft 0kts
09-Jan-18 09:59 33.127242 -117.274465 251 297ft 0kts
09-Jan-18 10:00 33.127222 -117.274575 256 297ft 2kts
09-Jan-18 10:01 33.128291 -117.274707 79 297ft 8kts
09-Jan-18 10:02 33.128633 -117.272907 48 297ft 0kts
09-Jan-18 10:03 33.128633 -117.272907 48 297ft 0kts
09-Jan-18 10:04 33.128633 -117.272907 48 297ft 0kts
09-Jan-18 10:05 33.129337 -117.272349 340 297ft 10kts
09-Jan-18 10:06 33.127866 -117.290598 260 982ft 92kts
09-Jan-18 10:07 33.125114 -117.320313 260 2317ft 92kts
09-Jan-18 10:08 33.121731 -117.349693 257 3578ft 90kts
09-Jan-18 10:09 33.118768 -117.380693 257 4563ft 100kts
09-Jan-18 10:10 33.137680 -117.402050 346 5445ft 123kts
09-Jan-18 10:11 33.173296 -117.407821 348 6020ft 149kts
09-Jan-18 10:12 33.215009 -117.414285 349 6002ft 153kts
09-Jan-18 10:13 33.251934 -117.432119 309 6004ft 145kts
09-Jan-18 10:14 33.280766 -117.465476 307 6005ft 144kts
09-Jan-18 10:15 33.309156 -117.498543 307 6005ft 142kts
09-Jan-18 10:16 33.336958 -117.530994 306 5996ft 140kts
09-Jan-18 10:17 33.364874 -117.562865 307 5995ft 138kts
09-Jan-18 10:18 33.392067 -117.594341 306 5995ft 135kts
09-Jan-18 10:19 33.418793 -117.625568 306 5993ft 135kts
09-Jan-18 10:20 33.445072 -117.656371 309 5992ft 139kts
09-Jan-18 10:21 33.470286 -117.685943 309 5992ft 131kts
09-Jan-18 10:22 33.495706 -117.715770 310 5982ft 127kts
09-Jan-18 10:23 33.520412 -117.744815 311 5974ft 125kts
09-Jan-18 10:24 33.544883 -117.773602 312 5968ft 123kts
09-Jan-18 10:25 33.562955 -117.794857 312 5964ft 123kts
09-Jan-18 10:26 33.586717 -117.822820 313 5962ft 123kts
09-Jan-18 10:27 33.610866 -117.851273 313 5961ft 122kts
09-Jan-18 10:28 33.634762 -117.879592 317 5949ft 129kts
09-Jan-18 10:29 33.662440 -117.911952 318 5961ft 145kts
09-Jan-18 10:30 33.685753 -117.951585 302 5990ft 148kts
09-Jan-18 10:31 33.707607 -117.993655 301 5998ft 152kts
09-Jan-18 10:32 33.729704 -118.036365 299 5998ft 153kts
09-Jan-18 10:33 33.749924 -118.075517 298 5999ft 152kts
09-Jan-18 10:34 33.770453 -118.115448 299 5998ft 152kts
09-Jan-18 10:35 33.792664 -118.158576 299 5997ft 153kts
09-Jan-18 10:36 33.814677 -118.201326 300 5996ft 155kts
09-Jan-18 10:37 33.836406 -118.243555 299 5996ft 155kts
09-Jan-18 10:38 33.858733 -118.287004 298 5996ft 155kts
09-Jan-18 10:39 33.881101 -118.330382 297 5997ft 154kts
09-Jan-18 10:40 33.903196 -118.373427 296 5995ft 152kts
09-Jan-18 10:41 33.924834 -118.415741 296 5993ft 151kts
09-Jan-18 10:42 33.942367 -118.461023 285 5988ft 151kts
09-Jan-18 10:43 33.954836 -118.500140 286 5986ft 152kts
09-Jan-18 10:44 33.972621 -118.555967 287 5983ft 154kts
09-Jan-18 10:45 33.987915 -118.603985 286 5981ft 154kts
09-Jan-18 10:46 34.000623 -118.643973 286 5978ft 154kts
09-Jan-18 10:47 34.015381 -118.690484 285 5973ft 154kts
09-Jan-18 10:48 34.030689 -118.738414 285 5968ft 154kts
09-Jan-18 10:49 34.044934 -118.786670 281 5962ft 153kts
09-Jan-18 10:50 34.057928 -118.835278 281 5958ft 152kts
09-Jan-18 10:51 34.070768 -118.883368 281 5956ft 150kts
09-Jan-18 10:52 34.083557 -118.931188 281 5954ft 149kts
09-Jan-18 10:53 34.096169 -118.978481 282 5954ft 148kts
09-Jan-18 10:54 34.108355 -119.024319 282 5950ft 147kts
09-Jan-18 10:55 34.122293 -119.066716 292 5950ft 148kts
09-Jan-18 10:56 34.140823 -119.110891 293 5957ft 149kts
09-Jan-18 10:57 34.159497 -119.155440 293 5956ft 149kts
09-Jan-18 10:58 34.178060 -119.199779 293 5999ft 148kts
09-Jan-18 10:59 34.196690 -119.244235 293 5999ft 149kts
09-Jan-18 11:00 34.215338 -119.288790 293 5997ft 148kts
09-Jan-18 11:01 34.233860 -119.333217 293 5997ft 148kts
09-Jan-18 11:02 34.252314 -119.377525 293 5996ft 148kts
09-Jan-18 11:03 34.270777 -119.421909 293 5993ft 148kts
09-Jan-18 11:04 34.289273 -119.466432 293 5988ft 148kts
09-Jan-18 11:05 34.307708 -119.510894 293 5999ft 148kts
09-Jan-18 11:06 34.306333 -119.558554 259 5993ft 143kts
09-Jan-18 11:07 34.302445 -119.606197 259 5998ft 143kts
09-Jan-18 11:08 34.298592 -119.653569 258 5993ft 143kts
09-Jan-18 11:09 34.294698 -119.701195 258 6005ft 143kts
09-Jan-18 11:10 34.290763 -119.749180 258 5997ft 140kts
09-Jan-18 11:11 34.286762 -119.797745 259 5997ft 147kts
09-Jan-18 11:12 34.282802 -119.846978 258 5997ft 147kts
09-Jan-18 11:13 34.278734 -119.896775 259 5674ft 153kts
09-Jan-18 11:14 34.274496 -119.948890 260 4872ft 156kts
09-Jan-18 11:15 34.270210 -120.001279 261 4132ft 157kts
09-Jan-18 11:16 34.266153 -120.050613 261 4040ft 142kts
09-Jan-18 11:17 34.281398 -120.087464 2 3528ft 149kts
09-Jan-18 11:18 34.319693 -120.087509 3 3522ft 134kts
09-Jan-18 11:19 34.356688 -120.087782 2 3522ft 134kts
09-Jan-18 11:20 34.393734 -120.088277 4 3522ft 133kts
09-Jan-18 11:21 34.426177 -120.079889 72 3503ft 120kts
09-Jan-18 11:22 34.424000 -120.040139 91 2954ft 119kts
09-Jan-18 11:23 34.424178 -120.006399 88 2356ft 102kts
09-Jan-18 11:24 34.424883 -119.976923 86 2034ft 83kts
09-Jan-18 11:25 34.425464 -119.950843 86 1519ft 74kts
09-Jan-18 11:26 34.425908 -119.931676 86 1235ft 68kts
09-Jan-18 11:27 34.426406 -119.910199 85 953ft 60kts
09-Jan-18 11:28 34.426831 -119.889962 85 637ft 60kts
09-Jan-18 11:29 34.427199 -119.869413 85 294ft 60kts
09-Jan-18 11:30 34.427580 -119.850164 87 16ft 43kts
09-Jan-18 11:31 34.426838 -119.846315 164 16ft 0kts
09-Jan-18 11:32 34.426576 -119.845450 86 16ft 4kts
09-Jan-18 11:33 34.426618 -119.843084 88 16ft 11kts
09-Jan-18 11:34 34.426716 -119.839103 88 16ft 13kts
09-Jan-18 11:35 34.423115 -119.836946 151 16ft 12kts
09-Jan-18 11:36 34.422469 -119.835780 199 16ft 0kts
09-Jan-18 11:37 34.422469 -119.835780 199 16ft 0kts
09-Jan-18 11:38 34.422469 -119.835780 199 16ft 0kts
09-Jan-18 11:39 34.422469 -119.835780 199 16ft 0kts
09-Jan-18 11:40 34.422469 -119.835780 199 16ft 0kts
09-Jan-18 11:41 34.422469 -119.835780 199 16ft 0kts
09-Jan-18 11:42 34.422469 -119.835780 199 16ft 0kts
09-Jan-18 11:43 34.422469 -119.835780 199 16ft 0kts
09-Jan-18 11:44 34.422469 -119.835780 199 16ft 0kts
09-Jan-18 11:45 34.422469 -119.835780 199 16ft 0kts

Navigation Log

Ident Type
Flight plan parsing failed, navigation log unavailable